createdAt,value
2023-03-01T00:00:20.553Z,95487.00
2023-03-01T00:01:20.540Z,95489.00
2023-03-01T00:02:20.543Z,95489.00
2023-03-01T00:10:20.573Z,95493.00
2023-03-01T00:11:20.649Z,95491.00
2023-03-01T00:12:20.582Z,95491.00
2023-03-01T00:13:20.591Z,95493.00
2023-03-01T00:14:20.601Z,95491.00
2023-03-01T00:15:20.592Z,95491.00
2023-03-01T00:16:20.650Z,95489.00
2023-03-01T00:17:20.565Z,95489.00
2023-03-01T00:18:20.549Z,95485.00
2023-03-01T00:19:20.556Z,95485.00
2023-03-01T00:20:20.574Z,95485.00
2023-03-01T00:21:20.535Z,95485.00
2023-03-01T00:22:20.547Z,95481.00
2023-03-01T00:23:20.562Z,95481.00
2023-03-01T00:24:20.570Z,95479.00
2023-03-01T00:25:20.520Z,95479.00
2023-03-01T00:26:20.526Z,95479.00
2023-03-01T00:27:20.499Z,95481.00
2023-03-01T00:28:20.518Z,95477.00
2023-03-01T00:29:20.551Z,95477.00
2023-03-01T00:30:20.531Z,95477.00
2023-03-01T00:31:20.593Z,95477.00
2023-03-01T00:32:20.643Z,95477.00
2023-03-01T00:33:20.675Z,95475.00
2023-03-01T00:34:20.728Z,95475.00
2023-03-01T00:35:20.786Z,95475.00
2023-03-01T00:36:20.863Z,95473.00
2023-03-01T00:37:20.899Z,95475.00
2023-03-01T00:38:20.918Z,95475.00
2023-03-01T00:39:20.967Z,95477.00
2023-03-01T00:40:21.021Z,95475.00
2023-03-01T00:41:21.050Z,95473.00
2023-03-01T00:42:21.082Z,95473.00
2023-03-01T00:43:21.134Z,95473.00
2023-03-01T00:44:21.194Z,95473.00
2023-03-01T00:45:21.224Z,95473.00
2023-03-01T00:46:21.295Z,95475.00
2023-03-01T00:47:21.290Z,95475.00
2023-03-01T00:48:21.343Z,95475.00
2023-03-01T00:49:21.387Z,95475.00
2023-03-01T00:50:21.465Z,95471.00
2023-03-01T00:51:21.529Z,95469.00
2023-03-01T00:52:21.531Z,95467.00
2023-03-01T00:53:21.591Z,95466.00
2023-03-01T00:54:21.588Z,95464.00
2023-03-01T00:55:21.676Z,95464.00
2023-03-01T00:56:21.685Z,95458.00
2023-03-01T00:57:21.750Z,95460.00
2023-03-01T00:58:21.831Z,95460.00
2023-03-01T00:59:21.839Z,95460.00
2023-03-01T01:00:21.891Z,95456.00
2023-03-01T01:01:21.993Z,95456.00
2023-03-01T01:02:21.979Z,95458.00
2023-03-01T01:03:22.024Z,95458.00
2023-03-01T01:04:22.050Z,95456.00
2023-03-01T01:05:22.050Z,95456.00
2023-03-01T01:06:22.135Z,95454.00
2023-03-01T01:07:22.141Z,95456.00
2023-03-01T01:08:22.225Z,95454.00
2023-03-01T01:09:22.221Z,95456.00
2023-03-01T01:10:22.260Z,95450.00
2023-03-01T01:11:22.334Z,95452.00
2023-03-01T01:12:22.356Z,95450.00
2023-03-01T01:13:22.389Z,95450.00
2023-03-01T01:14:22.443Z,95444.00
2023-03-01T01:15:22.497Z,95444.00
2023-03-01T01:16:22.510Z,95440.00
2023-03-01T01:17:22.571Z,95440.00
2023-03-01T01:18:22.578Z,95438.00
2023-03-01T01:19:22.641Z,95438.00
2023-03-01T01:20:22.692Z,95440.00
2023-03-01T01:21:22.728Z,95438.00
2023-03-01T01:22:22.738Z,95436.00
2023-03-01T01:23:22.769Z,95436.00
2023-03-01T01:24:22.886Z,95434.00
2023-03-01T01:25:22.902Z,95434.00
2023-03-01T01:26:22.929Z,95428.00
2023-03-01T01:27:22.964Z,95432.00
2023-03-01T01:28:23.010Z,95420.00
2023-03-01T01:29:23.017Z,95418.00
2023-03-01T01:30:23.081Z,95416.00
2023-03-01T01:31:23.152Z,95416.00
2023-03-01T01:32:24.468Z,95418.00
2023-03-01T01:33:23.231Z,95416.00
2023-03-01T01:34:23.365Z,95416.00
2023-03-01T01:35:23.406Z,95416.00
2023-03-01T01:36:23.337Z,95411.00
2023-03-01T01:37:23.361Z,95411.00
2023-03-01T01:38:23.413Z,95413.00
2023-03-01T01:39:23.440Z,95407.00
2023-03-01T01:40:23.504Z,95405.00
2023-03-01T01:41:23.500Z,95401.00
2023-03-01T01:42:23.560Z,95403.00
2023-03-01T01:43:23.593Z,95403.00
2023-03-01T01:44:23.637Z,95401.00
2023-03-01T01:45:23.671Z,95399.00
2023-03-01T01:46:23.784Z,95401.00
2023-03-01T01:47:23.750Z,95401.00
2023-03-01T01:50:23.848Z,95397.00
2023-03-01T01:51:23.922Z,95397.00
2023-03-01T01:52:23.932Z,95397.00
2023-03-01T01:53:23.981Z,95393.00
2023-03-01T01:54:24.016Z,95391.00
2023-03-01T01:55:24.081Z,95391.00
2023-03-01T01:56:24.089Z,95391.00
2023-03-01T01:57:24.133Z,95391.00
2023-03-01T01:58:24.176Z,95391.00
2023-03-01T01:59:24.210Z,95391.00
2023-03-01T02:00:24.256Z,95389.00
2023-03-01T02:01:24.306Z,95387.00
2023-03-01T02:02:24.460Z,95389.00
2023-03-01T02:03:24.498Z,95383.00
2023-03-01T02:04:24.420Z,95383.00
2023-03-01T02:05:24.465Z,95383.00
2023-03-01T02:06:24.481Z,95381.00
2023-03-01T02:07:24.583Z,95381.00
2023-03-01T02:08:24.553Z,95381.00
2023-03-01T02:09:24.633Z,95381.00
2023-03-01T02:10:24.624Z,95377.00
2023-03-01T02:11:24.650Z,95375.00
2023-03-01T02:12:24.689Z,95377.00
2023-03-01T02:13:24.744Z,95373.00
2023-03-01T02:14:24.783Z,95373.00
2023-03-01T02:15:24.796Z,95375.00
2023-03-01T02:16:24.909Z,95371.00
2023-03-01T02:17:24.847Z,95371.00
2023-03-01T02:18:24.871Z,95369.00
2023-03-01T02:19:24.895Z,95371.00
2023-03-01T02:20:24.943Z,95373.00
2023-03-01T02:21:24.966Z,95373.00
2023-03-01T02:22:25.016Z,95373.00
2023-03-01T02:23:24.994Z,95371.00
2023-03-01T02:24:25.049Z,95373.00
2023-03-01T02:25:25.085Z,95371.00
2023-03-01T02:26:25.084Z,95371.00
2023-03-01T02:27:25.105Z,95371.00
2023-03-01T02:28:25.143Z,95373.00
2023-03-01T02:29:25.189Z,95369.00
2023-03-01T02:30:25.158Z,95371.00
2023-03-01T02:31:25.247Z,95371.00
2023-03-01T02:32:25.225Z,95369.00
2023-03-01T02:33:25.193Z,95367.00
2023-03-01T02:34:25.243Z,95369.00
2023-03-01T02:35:25.277Z,95371.00
2023-03-01T02:36:25.314Z,95369.00
2023-03-01T02:37:25.496Z,95369.00
2023-03-01T02:38:25.444Z,95366.00
2023-03-01T02:39:25.524Z,95364.00
2023-03-01T02:40:25.545Z,95364.00
2023-03-01T02:41:25.620Z,95364.00
2023-03-01T02:42:27.284Z,95358.00
2023-03-01T02:43:25.705Z,95356.00
2023-03-01T02:44:25.768Z,95358.00
2023-03-01T02:45:25.842Z,95358.00
2023-03-01T02:46:25.907Z,95352.00
2023-03-01T02:47:25.897Z,95350.00
2023-03-01T02:48:25.953Z,95354.00
2023-03-01T02:49:26.023Z,95354.00
2023-03-01T02:50:26.152Z,95354.00
2023-03-01T02:51:26.072Z,95352.00
2023-03-01T02:52:26.115Z,95356.00
2023-03-01T02:53:26.153Z,95352.00
2023-03-01T02:54:26.222Z,95350.00
2023-03-01T02:55:26.256Z,95350.00
2023-03-01T02:56:26.285Z,95350.00
2023-03-01T02:57:26.337Z,95348.00
2023-03-01T02:58:26.301Z,95348.00
2023-03-01T02:59:26.306Z,95346.00
2023-03-01T03:00:26.417Z,95346.00
2023-03-01T03:01:26.310Z,95342.00
2023-03-01T03:02:26.320Z,95342.00
2023-03-01T03:03:26.332Z,95340.00
2023-03-01T03:04:26.296Z,95340.00
2023-03-01T03:05:26.319Z,95340.00
2023-03-01T03:06:26.359Z,95336.00
2023-03-01T03:07:26.318Z,95338.00
2023-03-01T03:08:26.390Z,95336.00
2023-03-01T03:09:26.302Z,95340.00
2023-03-01T03:10:26.358Z,95336.00
2023-03-01T03:11:26.355Z,95332.00
2023-03-01T03:12:26.366Z,95328.00
2023-03-01T03:13:26.442Z,95330.00
2023-03-01T03:14:26.443Z,95330.00
2023-03-01T03:15:26.484Z,95330.00
2023-03-01T03:16:26.557Z,95332.00
2023-03-01T03:17:26.547Z,95332.00
2023-03-01T03:18:26.561Z,95332.00
2023-03-01T03:19:26.607Z,95334.00
2023-03-01T03:20:26.637Z,95330.00
2023-03-01T03:21:26.652Z,95332.00
2023-03-01T03:22:26.691Z,95332.00
2023-03-01T03:23:26.766Z,95330.00
2023-03-01T03:24:26.750Z,95328.00
2023-03-01T03:25:26.804Z,95328.00
2023-03-01T03:26:26.877Z,95332.00
2023-03-01T03:27:26.896Z,95330.00
2023-03-01T03:28:26.914Z,95328.00
2023-03-01T03:29:26.952Z,95328.00
2023-03-01T03:30:26.969Z,95332.00
2023-03-01T03:31:26.994Z,95330.00
2023-03-01T03:32:27.047Z,95328.00
2023-03-01T03:33:27.025Z,95326.00
2023-03-01T03:34:27.057Z,95326.00
2023-03-01T03:35:27.109Z,95324.00
2023-03-01T03:36:27.097Z,95324.00
2023-03-01T03:37:27.129Z,95322.00
2023-03-01T03:38:27.167Z,95324.00
2023-03-01T03:39:27.265Z,95326.00
2023-03-01T03:40:27.201Z,95326.00
2023-03-01T03:41:27.242Z,95324.00
2023-03-01T03:42:27.247Z,95324.00
2023-03-01T03:43:27.289Z,95324.00
2023-03-01T03:44:27.289Z,95326.00
2023-03-01T03:45:27.375Z,95324.00
2023-03-01T03:46:27.339Z,95324.00
2023-03-01T03:47:27.363Z,95324.00
2023-03-01T03:48:27.348Z,95324.00
2023-03-01T03:49:27.412Z,95322.00
2023-03-01T03:50:27.437Z,95322.00
2023-03-01T03:51:27.443Z,95320.00
2023-03-01T03:52:27.471Z,95319.00
2023-03-01T03:53:27.450Z,95317.00
2023-03-01T03:54:27.485Z,95317.00
2023-03-01T03:55:27.496Z,95315.00
2023-03-01T03:56:28.726Z,95313.00
2023-03-01T03:57:27.527Z,95313.00
2023-03-01T03:58:27.530Z,95313.00
2023-03-01T03:59:27.528Z,95311.00
2023-03-01T04:00:27.655Z,95307.00
2023-03-01T04:01:27.619Z,95309.00
2023-03-01T04:02:27.659Z,95305.00
2023-03-01T04:03:27.641Z,95303.00
2023-03-01T04:04:27.721Z,95305.00
2023-03-01T04:05:27.783Z,95301.00
2023-03-01T04:06:27.854Z,95299.00
2023-03-01T04:07:27.893Z,95297.00
2023-03-01T04:08:27.984Z,95295.00
2023-03-01T04:09:28.038Z,95297.00
2023-03-01T04:10:28.080Z,95299.00
2023-03-01T04:11:28.116Z,95297.00
2023-03-01T04:12:28.091Z,95295.00
2023-03-01T04:13:28.105Z,95293.00
2023-03-01T04:14:28.114Z,95293.00
2023-03-01T04:15:28.159Z,95293.00
2023-03-01T04:16:28.209Z,95291.00
2023-03-01T04:17:28.177Z,95289.00
2023-03-01T04:18:28.155Z,95287.00
2023-03-01T04:19:28.193Z,95285.00
2023-03-01T04:20:28.173Z,95283.00
2023-03-01T04:21:28.170Z,95283.00
2023-03-01T04:22:28.213Z,95281.00
2023-03-01T04:23:28.168Z,95283.00
2023-03-01T04:24:28.189Z,95283.00
2023-03-01T04:25:28.231Z,95280.00
2023-03-01T04:26:28.347Z,95280.00
2023-03-01T04:27:28.337Z,95278.00
2023-03-01T04:28:28.381Z,95278.00
2023-03-01T04:29:28.435Z,95280.00
2023-03-01T04:30:28.490Z,95281.00
2023-03-01T04:31:28.600Z,95283.00
2023-03-01T04:32:28.635Z,95283.00
2023-03-01T04:33:28.633Z,95283.00
2023-03-01T04:34:28.665Z,95287.00
2023-03-01T04:35:28.732Z,95287.00
2023-03-01T04:36:28.985Z,95289.00
2023-03-01T04:37:28.660Z,95289.00
2023-03-01T04:38:28.667Z,95291.00
2023-03-01T04:39:28.691Z,95289.00
2023-03-01T04:40:28.788Z,95287.00
2023-03-01T04:41:28.837Z,95289.00
2023-03-01T04:42:28.853Z,95291.00
2023-03-01T04:43:28.842Z,95289.00
2023-03-01T04:44:28.867Z,95289.00
2023-03-01T04:45:28.909Z,95287.00
2023-03-01T04:46:29.536Z,95289.00
2023-03-01T04:47:29.028Z,95289.00
2023-03-01T04:48:29.096Z,95289.00
2023-03-01T04:49:29.105Z,95291.00
2023-03-01T04:50:29.205Z,95291.00
2023-03-01T04:51:29.291Z,95289.00
2023-03-01T04:52:29.299Z,95291.00
2023-03-01T04:53:29.344Z,95291.00
2023-03-01T04:54:29.412Z,95289.00
2023-03-01T04:55:29.467Z,95289.00
2023-03-01T04:56:29.858Z,95289.00
2023-03-01T04:57:29.580Z,95289.00
2023-03-01T04:58:29.627Z,95287.00
2023-03-01T04:59:29.676Z,95287.00
2023-03-01T05:00:29.716Z,95287.00
2023-03-01T05:01:29.756Z,95287.00
2023-03-01T05:02:29.876Z,95285.00
2023-03-01T05:03:29.910Z,95287.00
2023-03-01T05:04:29.973Z,95283.00
2023-03-01T05:05:29.988Z,95287.00
2023-03-01T05:06:30.352Z,95283.00
2023-03-01T05:07:30.142Z,95287.00
2023-03-01T05:08:30.157Z,95285.00
2023-03-01T05:09:30.231Z,95283.00
2023-03-01T05:10:30.275Z,95283.00
2023-03-01T05:11:30.395Z,95281.00
2023-03-01T05:12:30.396Z,95281.00
2023-03-01T05:13:30.458Z,95281.00
2023-03-01T05:14:30.552Z,95281.00
2023-03-01T05:15:30.692Z,95283.00
2023-03-01T05:16:31.096Z,95283.00
2023-03-01T05:17:30.739Z,95283.00
2023-03-01T05:18:30.788Z,95283.00
2023-03-01T05:19:30.880Z,95283.00
2023-03-01T05:20:30.977Z,95281.00
2023-03-01T05:21:30.996Z,95281.00
2023-03-01T05:22:31.044Z,95281.00
2023-03-01T05:23:31.110Z,95281.00
2023-03-01T05:24:31.163Z,95281.00
2023-03-01T05:25:31.246Z,95283.00
2023-03-01T05:26:31.318Z,95281.00
2023-03-01T05:27:31.358Z,95285.00
2023-03-01T05:28:31.433Z,95283.00
2023-03-01T05:29:31.472Z,95281.00
2023-03-01T05:30:31.551Z,95281.00
2023-03-01T05:31:31.889Z,95281.00
2023-03-01T05:32:31.695Z,95280.00
2023-03-01T05:33:31.748Z,95281.00
2023-03-01T05:34:31.789Z,95281.00
2023-03-01T05:35:31.850Z,95281.00
2023-03-01T05:36:32.547Z,95283.00
2023-03-01T05:37:31.951Z,95285.00
2023-03-01T05:38:32.008Z,95289.00
2023-03-01T05:39:32.109Z,95285.00
2023-03-01T05:40:32.157Z,95283.00
2023-03-01T05:41:32.237Z,95281.00
2023-03-01T05:42:32.265Z,95281.00
2023-03-01T05:43:32.335Z,95283.00
2023-03-01T05:44:32.402Z,95281.00
2023-03-01T05:45:32.476Z,95283.00
2023-03-01T05:46:32.834Z,95287.00
2023-03-01T05:47:32.564Z,95287.00
2023-03-01T05:48:32.634Z,95285.00
2023-03-01T05:49:32.732Z,95287.00
2023-03-01T05:50:32.774Z,95283.00
2023-03-01T05:51:32.833Z,95281.00
2023-03-01T05:52:32.907Z,95283.00
2023-03-01T05:53:32.934Z,95283.00
2023-03-01T05:54:32.996Z,95285.00
2023-03-01T05:55:33.054Z,95283.00
2023-03-01T05:56:33.260Z,95281.00
2023-03-01T05:57:33.195Z,95281.00
2023-03-01T05:58:33.246Z,95281.00
2023-03-01T05:59:33.325Z,95281.00
2023-03-01T06:00:33.354Z,95281.00
2023-03-01T06:01:40.509Z,95280.00
2023-03-01T06:02:33.441Z,95276.00
2023-03-01T06:03:33.387Z,95278.00
2023-03-01T06:04:33.454Z,95278.00
2023-03-01T06:05:33.426Z,95278.00
2023-03-01T06:06:33.697Z,95280.00
2023-03-01T06:07:33.490Z,95278.00
2023-03-01T06:08:33.358Z,95280.00
2023-03-01T06:09:33.368Z,95280.00
2023-03-01T06:10:33.377Z,95283.00
2023-03-01T06:11:33.344Z,95283.00
2023-03-01T06:12:33.334Z,95287.00
2023-03-01T06:13:33.346Z,95287.00
2023-03-01T06:14:33.326Z,95285.00
2023-03-01T06:15:33.345Z,95285.00
2023-03-01T06:16:33.563Z,95285.00
2023-03-01T06:17:33.314Z,95291.00
2023-03-01T06:18:33.289Z,95291.00
2023-03-01T06:19:33.286Z,95289.00
2023-03-01T06:20:33.256Z,95289.00
2023-03-01T06:21:33.262Z,95291.00
2023-03-01T06:22:33.267Z,95289.00
2023-03-01T06:23:33.253Z,95287.00
2023-03-01T06:24:33.258Z,95287.00
2023-03-01T06:25:33.262Z,95285.00
2023-03-01T06:26:33.501Z,95291.00
2023-03-01T06:27:33.248Z,95285.00
2023-03-01T06:28:33.238Z,95289.00
2023-03-01T06:29:33.269Z,95291.00
2023-03-01T06:30:33.338Z,95289.00
2023-03-01T06:31:33.420Z,95289.00
2023-03-01T06:32:33.532Z,95289.00
2023-03-01T06:33:33.498Z,95285.00
2023-03-01T06:34:33.539Z,95280.00
2023-03-01T06:35:33.616Z,95285.00
2023-03-01T06:36:33.680Z,95281.00
2023-03-01T06:37:34.034Z,95280.00
2023-03-01T06:38:33.696Z,95281.00
2023-03-01T06:39:33.739Z,95281.00
2023-03-01T06:40:33.797Z,95281.00
2023-03-01T06:41:33.784Z,95280.00
2023-03-01T06:42:34.044Z,95280.00
2023-03-01T06:43:33.939Z,95281.00
2023-03-01T06:44:33.966Z,95280.00
2023-03-01T06:45:36.039Z,95281.00
2023-03-01T06:47:34.534Z,95285.00
2023-03-01T06:48:34.077Z,95285.00
2023-03-01T06:49:35.033Z,95283.00
2023-03-01T06:50:34.167Z,95287.00
2023-03-01T06:51:34.199Z,95293.00
2023-03-01T06:52:34.058Z,95289.00
2023-03-01T06:53:34.116Z,95287.00
2023-03-01T06:54:34.047Z,95287.00
2023-03-01T06:55:34.032Z,95285.00
2023-03-01T06:56:34.362Z,95289.00
2023-03-01T06:57:34.032Z,95287.00
2023-03-01T06:58:33.986Z,95287.00
2023-03-01T06:59:34.002Z,95287.00
2023-03-01T07:00:33.976Z,95287.00
2023-03-01T07:01:34.004Z,95289.00
2023-03-01T07:02:34.022Z,95287.00
2023-03-01T07:03:33.957Z,95289.00
2023-03-01T07:04:33.963Z,95293.00
2023-03-01T07:05:33.981Z,95291.00
2023-03-01T07:06:33.965Z,95295.00
2023-03-01T07:07:34.171Z,95293.00
2023-03-01T07:08:33.941Z,95293.00
2023-03-01T07:09:33.969Z,95289.00
2023-03-01T07:10:33.898Z,95287.00
2023-03-01T07:11:33.901Z,95291.00
2023-03-01T07:12:33.933Z,95291.00
2023-03-01T07:13:33.894Z,95293.00
2023-03-01T07:14:33.891Z,95289.00
2023-03-01T07:15:33.883Z,95289.00
2023-03-01T07:16:34.561Z,95291.00
2023-03-01T07:17:33.848Z,95289.00
2023-03-01T07:18:33.904Z,95291.00
2023-03-01T07:19:33.827Z,95287.00
2023-03-01T07:20:33.875Z,95293.00
2023-03-01T07:21:33.839Z,95289.00
2023-03-01T07:22:33.847Z,95287.00
2023-03-01T07:23:34.117Z,95289.00
2023-03-01T07:24:33.857Z,95287.00
2023-03-01T07:25:33.900Z,95289.00
2023-03-01T07:26:33.879Z,95285.00
2023-03-01T07:27:33.913Z,95285.00
2023-03-01T07:28:34.139Z,95287.00
2023-03-01T07:29:33.976Z,95287.00
2023-03-01T07:30:34.024Z,95287.00
2023-03-01T07:31:34.023Z,95287.00
2023-03-01T07:32:34.136Z,95285.00
2023-03-01T07:33:34.074Z,95287.00
2023-03-01T07:34:34.064Z,95287.00
2023-03-01T07:35:34.174Z,95289.00
2023-03-01T07:36:34.119Z,95289.00
2023-03-01T07:37:34.136Z,95287.00
2023-03-01T07:38:34.623Z,95287.00
2023-03-01T07:39:34.170Z,95283.00
2023-03-01T07:40:34.209Z,95280.00
2023-03-01T07:41:34.273Z,95278.00
2023-03-01T07:42:34.321Z,95280.00
2023-03-01T07:43:34.579Z,95276.00
2023-03-01T07:44:34.445Z,95278.00
2023-03-01T07:45:34.546Z,95278.00
2023-03-01T07:46:34.512Z,95272.00
2023-03-01T07:47:34.582Z,95268.00
2023-03-01T07:48:34.630Z,95268.00
2023-03-01T07:49:34.553Z,95268.00
2023-03-01T07:50:34.558Z,95262.00
2023-03-01T07:51:34.613Z,95264.00
2023-03-01T07:52:34.653Z,95264.00
2023-03-01T07:53:35.149Z,95268.00
2023-03-01T07:54:34.775Z,95270.00
2023-03-01T07:55:34.827Z,95272.00
2023-03-01T07:56:34.874Z,95272.00
2023-03-01T07:57:34.942Z,95274.00
2023-03-01T07:58:35.165Z,95270.00
2023-03-01T07:59:35.028Z,95272.00
2023-03-01T08:00:35.057Z,95272.00
2023-03-01T08:01:35.136Z,95272.00
2023-03-01T08:02:35.183Z,95272.00
2023-03-01T08:03:35.193Z,95268.00
2023-03-01T08:04:35.227Z,95268.00
2023-03-01T08:05:35.299Z,95272.00
2023-03-01T08:06:35.332Z,95272.00
2023-03-01T08:07:35.398Z,95274.00
2023-03-01T08:08:35.647Z,95276.00
2023-03-01T08:09:35.458Z,95276.00
2023-03-01T08:10:35.488Z,95278.00
2023-03-01T08:11:35.574Z,95278.00
2023-03-01T08:12:35.562Z,95278.00
2023-03-01T08:13:35.612Z,95280.00
2023-03-01T08:14:35.627Z,95274.00
2023-03-01T08:15:35.639Z,95278.00
2023-03-01T08:16:35.732Z,95276.00
2023-03-01T08:17:35.735Z,95276.00
2023-03-01T08:18:35.798Z,95276.00
2023-03-01T08:19:35.815Z,95276.00
2023-03-01T08:20:35.813Z,95274.00
2023-03-01T08:21:35.877Z,95278.00
2023-03-01T08:22:35.938Z,95278.00
2023-03-01T08:23:35.934Z,95272.00
2023-03-01T08:24:35.939Z,95268.00
2023-03-01T08:25:35.968Z,95268.00
2023-03-01T08:26:36.069Z,95266.00
2023-03-01T08:27:36.080Z,95264.00
2023-03-01T08:28:36.116Z,95268.00
2023-03-01T08:29:36.116Z,95264.00
2023-03-01T08:30:36.141Z,95266.00
2023-03-01T08:31:36.286Z,95264.00
2023-03-01T08:32:36.237Z,95264.00
2023-03-01T08:33:36.202Z,95264.00
2023-03-01T08:34:36.279Z,95262.00
2023-03-01T08:35:36.355Z,95258.00
2023-03-01T08:36:36.313Z,95254.00
2023-03-01T08:37:36.313Z,95252.00
2023-03-01T08:38:36.352Z,95252.00
2023-03-01T08:39:36.425Z,95248.00
2023-03-01T08:40:36.412Z,95252.00
2023-03-01T08:41:36.427Z,95250.00
2023-03-01T08:42:36.488Z,95248.00
2023-03-01T08:43:36.486Z,95248.00
2023-03-01T08:44:36.540Z,95246.00
2023-03-01T08:45:36.632Z,95246.00
2023-03-01T08:46:36.654Z,95238.00
2023-03-01T08:47:36.750Z,95236.00
2023-03-01T08:48:36.784Z,95234.00
2023-03-01T08:49:36.828Z,95234.00
2023-03-01T08:50:36.875Z,95232.00
2023-03-01T08:51:36.949Z,95230.00
2023-03-01T08:52:36.985Z,95230.00
2023-03-01T08:53:37.021Z,95228.00
2023-03-01T08:54:37.067Z,95228.00
2023-03-01T08:55:37.105Z,95236.00
2023-03-01T08:56:37.132Z,95232.00
2023-03-01T08:57:37.216Z,95232.00
2023-03-01T08:58:37.243Z,95230.00
2023-03-01T08:59:37.308Z,95226.00
2023-03-01T09:00:37.308Z,95226.00
2023-03-01T09:01:37.334Z,95221.00
2023-03-01T09:02:37.445Z,95225.00
2023-03-01T09:03:37.387Z,95223.00
2023-03-01T09:04:37.446Z,95223.00
2023-03-01T09:05:37.461Z,95221.00
2023-03-01T09:06:37.488Z,95221.00
2023-03-01T09:07:37.482Z,95215.00
2023-03-01T09:08:37.538Z,95217.00
2023-03-01T09:09:37.531Z,95217.00
2023-03-01T09:10:37.561Z,95217.00
2023-03-01T09:11:37.598Z,95215.00
2023-03-01T09:12:37.574Z,95217.00
2023-03-01T09:13:37.613Z,95213.00
2023-03-01T09:14:37.610Z,95217.00
2023-03-01T09:15:37.632Z,95221.00
2023-03-01T09:16:37.722Z,95221.00
2023-03-01T09:17:37.661Z,95221.00
2023-03-01T09:18:37.704Z,95217.00
2023-03-01T09:19:37.683Z,95217.00
2023-03-01T09:20:37.673Z,95215.00
2023-03-01T09:21:40.927Z,95211.00
2023-03-01T09:22:37.669Z,95211.00
2023-03-01T09:23:37.733Z,95213.00
2023-03-01T09:24:37.695Z,95213.00
2023-03-01T09:25:37.678Z,95211.00
2023-03-01T09:26:37.652Z,95209.00
2023-03-01T09:27:37.627Z,95209.00
2023-03-01T09:28:37.646Z,95203.00
2023-03-01T09:30:37.655Z,95203.00
2023-03-01T09:31:37.657Z,95201.00
2023-03-01T09:32:37.602Z,95201.00
2023-03-01T09:33:38.170Z,95203.00
2023-03-01T09:34:37.609Z,95203.00
2023-03-01T09:35:37.639Z,95203.00
2023-03-01T09:36:37.580Z,95203.00
2023-03-01T09:37:37.633Z,95207.00
2023-03-01T09:38:37.556Z,95207.00
2023-03-01T09:39:37.672Z,95207.00
2023-03-01T09:40:37.608Z,95201.00
2023-03-01T09:41:37.576Z,95203.00
2023-03-01T09:42:37.565Z,95205.00
2023-03-01T09:43:37.581Z,95205.00
2023-03-01T09:44:37.633Z,95207.00
2023-03-01T09:45:37.534Z,95207.00
2023-03-01T09:46:37.670Z,95205.00
2023-03-01T09:47:37.559Z,95201.00
2023-03-01T09:48:37.496Z,95199.00
2023-03-01T09:49:37.564Z,95199.00
2023-03-01T09:50:37.496Z,95203.00
2023-03-01T09:51:37.485Z,95201.00
2023-03-01T09:52:37.495Z,95195.00
2023-03-01T09:53:37.481Z,95191.00
2023-03-01T09:54:37.443Z,95191.00
2023-03-01T09:55:37.512Z,95191.00
2023-03-01T09:56:37.458Z,95187.00
2023-03-01T09:57:37.502Z,95184.00
2023-03-01T09:58:37.432Z,95184.00
2023-03-01T09:59:37.650Z,95180.00
2023-03-01T10:00:38.398Z,95186.00
2023-03-01T10:01:37.394Z,95186.00
2023-03-01T10:02:37.446Z,95178.00
2023-03-01T10:03:37.449Z,95176.00
2023-03-01T10:04:37.899Z,95176.00
2023-03-01T10:05:37.416Z,95172.00
2023-03-01T10:06:37.407Z,95162.00
2023-03-01T10:07:37.366Z,95164.00
2023-03-01T10:08:37.523Z,95172.00
2023-03-01T10:09:37.418Z,95172.00
2023-03-01T10:10:37.425Z,95164.00
2023-03-01T10:11:37.813Z,95160.00
2023-03-01T10:12:37.530Z,95164.00
2023-03-01T10:13:37.576Z,95172.00
2023-03-01T10:14:37.635Z,95172.00
2023-03-01T10:15:37.705Z,95172.00
2023-03-01T10:16:37.741Z,95164.00
2023-03-01T10:17:37.809Z,95162.00
2023-03-01T10:18:37.859Z,95156.00
2023-03-01T10:19:38.181Z,95156.00
2023-03-01T10:20:37.982Z,95156.00
2023-03-01T10:21:38.012Z,95154.00
2023-03-01T10:22:38.065Z,95154.00
2023-03-01T10:23:38.259Z,95154.00
2023-03-01T10:24:38.757Z,95150.00
2023-03-01T10:25:38.247Z,95148.00
2023-03-01T10:26:38.266Z,95142.00
2023-03-01T10:27:38.342Z,95136.00
2023-03-01T10:30:38.506Z,95123.00
2023-03-01T10:31:38.665Z,95123.00
2023-03-01T10:32:38.732Z,95121.00
2023-03-01T10:33:38.711Z,95123.00
2023-03-01T10:34:38.785Z,95119.00
2023-03-01T10:35:38.856Z,95117.00
2023-03-01T10:36:38.912Z,95117.00
2023-03-01T10:37:38.969Z,95113.00
2023-03-01T10:38:39.042Z,95111.00
2023-03-01T10:39:39.096Z,95105.00
2023-03-01T10:40:39.646Z,95103.00
2023-03-01T10:41:39.179Z,95103.00
2023-03-01T10:42:39.232Z,95097.00
2023-03-01T10:43:39.259Z,95097.00
2023-03-01T10:44:39.298Z,95099.00
2023-03-01T10:45:39.355Z,95095.00
2023-03-01T10:46:39.419Z,95093.00
2023-03-01T10:47:39.423Z,95087.00
2023-03-01T10:48:39.448Z,95087.00
2023-03-01T10:49:39.422Z,95087.00
2023-03-01T10:50:41.886Z,95086.00
2023-03-01T10:51:39.386Z,95086.00
2023-03-01T10:52:39.439Z,95082.00
2023-03-01T10:53:39.396Z,95078.00
2023-03-01T10:54:39.660Z,95076.00
2023-03-01T10:55:39.424Z,95070.00
2023-03-01T10:56:39.402Z,95072.00
2023-03-01T10:57:42.322Z,95070.00
2023-03-01T10:58:39.371Z,95070.00
2023-03-01T10:59:39.420Z,95070.00
2023-03-01T11:00:39.352Z,95064.00
2023-03-01T11:01:39.394Z,95068.00
2023-03-01T11:02:39.368Z,95066.00
2023-03-01T11:03:39.315Z,95062.00
2023-03-01T11:04:40.281Z,95062.00
2023-03-01T11:05:39.341Z,95060.00
2023-03-01T11:06:39.286Z,95054.00
2023-03-01T11:07:39.287Z,95048.00
2023-03-01T11:08:39.291Z,95046.00
2023-03-01T11:09:39.270Z,95044.00
2023-03-01T11:10:39.258Z,95040.00
2023-03-01T11:11:39.275Z,95042.00
2023-03-01T11:12:39.262Z,95040.00
2023-03-01T11:13:39.605Z,95037.00
2023-03-01T11:14:39.268Z,95029.00
2023-03-01T11:15:39.279Z,95027.00
2023-03-01T11:16:39.247Z,95023.00
2023-03-01T11:17:53.147Z,95017.00
2023-03-01T11:18:47.557Z,95017.00
2023-03-01T11:19:40.662Z,95011.00
2023-03-01T11:20:39.203Z,95017.00
2023-03-01T11:21:39.222Z,95015.00
2023-03-01T11:22:39.163Z,95013.00
2023-03-01T11:23:39.153Z,95015.00
2023-03-01T11:24:41.179Z,95007.00
2023-03-01T11:25:39.187Z,95003.00
2023-03-01T11:26:39.160Z,94997.00
2023-03-01T11:27:40.088Z,94993.00
2023-03-01T11:28:39.118Z,94992.00
2023-03-01T11:29:48.611Z,94993.00
2023-03-01T11:30:40.161Z,94990.00
2023-03-01T11:31:44.151Z,94990.00
2023-03-01T11:32:40.249Z,94988.00
2023-03-01T11:33:39.103Z,94990.00
2023-03-01T11:34:39.098Z,94990.00
2023-03-01T11:35:39.072Z,94992.00
2023-03-01T11:36:39.082Z,94993.00
2023-03-01T11:37:39.078Z,94990.00
2023-03-01T11:38:39.065Z,94992.00
2023-03-01T11:39:39.060Z,94988.00
2023-03-01T11:40:39.093Z,94984.00
2023-03-01T11:41:39.049Z,94984.00
2023-03-01T11:43:39.377Z,94986.00
2023-03-01T11:44:39.109Z,94988.00
2023-03-01T11:45:39.177Z,94988.00
2023-03-01T11:46:39.258Z,94988.00
2023-03-01T11:47:39.448Z,94986.00
2023-03-01T11:48:48.746Z,94978.00
2023-03-01T11:49:40.203Z,94976.00
2023-03-01T11:50:39.185Z,94970.00
2023-03-01T11:51:39.218Z,94968.00
2023-03-01T11:52:39.177Z,94964.00
2023-03-01T11:53:39.177Z,94962.00
2023-03-01T11:54:39.210Z,94956.00
2023-03-01T11:55:39.143Z,94956.00
2023-03-01T11:56:39.158Z,94951.00
2023-03-01T11:57:43.801Z,94945.00
2023-03-01T11:58:40.150Z,94946.00